Time;durP1;ratioP1;P1;durP2;ratioP2;P2;SDS_P1;SDS_P2;PMS_P1;PMS_P2;Temp;Humidity;BMP_temperature;BMP_pressure;BME280_temperature;BME280_humidity;BME280_pressure;Samples;Min_cycle;Max_cycle;Signal;HPM_P1;HPM_P2
2023/12/08 00:04:20;;;;;;;23.95;15.13;;;;;;;2.67;81.48;97777.16;10329475;28;20120;-50
2023/12/08 00:09:18;;;;;;;33.35;20.60;;;;;;;2.93;80.62;97819.84;10329493;28;20030;-50
2023/12/08 00:14:17;;;;;;;32.45;18.90;;;;;;;2.94;81.58;97844.63;10329297;28;20437;-49
2023/12/08 00:19:16;;;;;;;27.02;17.73;;;;;;;1.81;80.52;97632.03;10328825;28;20836;-51
2023/12/08 00:24:15;;;;;;;26.83;16.13;;;;;;;3.17;81.32;97870.09;10328492;28;20129;-50
2023/12/08 00:29:14;;;;;;;21.48;13.70;;;;;;;3.02;81.03;97842.28;10328603;28;20604;-49
2023/12/08 00:34:13;;;;;;;33.17;20.88;;;;;;;2.70;81.12;97782.38;10327974;28;20747;-50
2023/12/08 00:39:12;;;;;;;;;;;;;;;3.04;82.13;97866.28;10328524;28;20061;-50
2023/12/08 00:44:12;;;;;;;33.45;21.83;;;;;;;2.93;82.53;97853.16;10328242;28;20012;-50
2023/12/08 00:49:11;;;;;;;34.83;20.70;;;;;;;2.59;83.72;97838.41;10328067;28;20057;-50
2023/12/08 00:54:10;;;;;;;33.88;21.25;;;;;;;2.66;84.07;97848.03;10328415;28;20100;-50
2023/12/08 00:59:09;;;;;;;32.88;20.38;;;;;;;2.56;84.81;97821.25;10327792;28;20033;-49
2023/12/08 01:04:08;;;;;;;29.00;18.90;;;;;;;2.59;84.78;97831.59;10327360;28;20119;-49
2023/12/08 01:09:07;;;;;;;19.75;13.82;;;;;;;2.56;83.83;97820.41;10327329;28;20029;-50
2023/12/08 01:14:06;;;;;;;20.80;13.35;;;;;;;2.26;84.23;97828.84;10326365;28;20108;-50
2023/12/08 01:19:08;;;;;;;18.25;12.93;;;;;;;2.41;84.40;97845.50;10325547;28;20080;-49
2023/12/08 01:24:07;;;;;;;23.95;14.80;;;;;;;2.36;84.12;97837.69;10324582;28;20566;-49
2023/12/08 01:29:06;;;;;;;23.23;14.88;;;;;;;2.25;85.09;97836.44;10326941;28;20125;-50
2023/12/08 01:34:06;;;;;;;19.45;11.88;;;;;;;1.93;86.50;97846.50;10325618;28;20068;-49
2023/12/08 01:39:05;;;;;;;19.67;12.50;;;;;;;1.93;85.95;97839.69;10325778;28;20117;-49
2023/12/08 01:44:06;;;;;;;22.60;15.05;;;;;;;2.02;86.38;97828.00;10326072;28;20052;-50
2023/12/08 01:49:05;;;;;;;51.63;32.42;;;;;;;2.30;86.10;97858.84;10325250;28;20069;-49
2023/12/08 01:54:06;;;;;;;44.03;28.15;;;;;;;2.05;86.17;97790.59;10325879;28;20116;-49
2023/12/08 01:59:06;;;;;;;41.25;27.30;;;;;;;2.24;86.37;97809.97;10325886;28;20477;-50
2023/12/08 02:04:05;;;;;;;23.83;14.23;;;;;;;2.09;85.43;97766.84;10325432;28;20068;-50
2023/12/08 02:09:04;;;;;;;20.55;13.55;;;;;;;2.55;85.98;97863.06;10324541;28;20038;-50
2023/12/08 02:14:03;;;;;;;55.75;35.40;;;;;;;2.32;86.01;97799.97;10325816;28;20522;-50
2023/12/08 02:19:06;;;;;;;39.47;24.00;;;;;;;2.84;85.68;97864.78;10325197;28;20481;-49
2023/12/08 02:24:05;;;;;;;38.70;24.75;;;;;;;2.76;85.21;97836.38;10324677;28;20092;-50
2023/12/08 02:29:08;;;;;;;27.33;17.42;;;;;;;2.58;85.20;97817.06;10325097;28;20552;-50
2023/12/08 02:34:08;;;;;;;28.27;17.00;;;;;;;2.92;85.31;97879.59;10325829;28;20057;-50
2023/12/08 02:39:09;;;;;;;36.50;21.73;;;;;;;2.80;85.24;97858.72;10324614;28;20056;-50
2023/12/08 02:44:08;;;;;;;35.58;20.85;;;;;;;1.57;84.95;97634.66;10324121;28;20068;-49
2023/12/08 02:49:07;;;;;;;35.25;21.20;;;;;;;2.57;84.79;97817.88;10324974;28;20036;-50
2023/12/08 02:54:06;;;;;;;28.35;16.60;;;;;;;2.72;84.53;97862.72;10330250;28;20091;-50
2023/12/08 02:59:05;;;;;;;34.53;22.02;;;;;;;2.65;84.49;97859.09;10331247;28;20188;-49
2023/12/08 03:04:04;;;;;;;35.78;22.27;;;;;;;2.58;84.50;97824.75;10331587;28;20499;-50
2023/12/08 03:09:04;;;;;;;40.05;22.83;;;;;;;2.90;85.19;97875.25;10331798;28;20482;-50
2023/12/08 03:14:03;;;;;;;36.13;21.85;;;;;;;2.94;85.31;97870.25;10347135;28;20069;-50
2023/12/08 03:19:02;;;;;;;26.02;15.70;;;;;;;2.52;84.94;97857.84;10331247;28;20083;-50
2023/12/08 03:24:01;;;;;;;22.33;14.93;;;;;;;2.50;84.94;97867.16;10330043;28;20128;-50
2023/12/08 03:29:00;;;;;;;24.30;15.20;;;;;;;2.19;86.17;97859.31;10330846;28;20036;-49
2023/12/08 03:33:59;;;;;;;26.65;15.05;;;;;;;1.45;87.68;97788.53;10330523;28;20163;-49
2023/12/08 03:38:58;;;;;;;28.15;16.35;;;;;;;1.89;87.26;97852.31;10329304;28;20062;-49
2023/12/08 03:43:57;;;;;;;;;;;;;;;1.83;88.35;97870.88;10330621;28;20080;-50
2023/12/08 03:48:56;;;;;;;24.73;15.23;;;;;;;1.84;89.41;97862.41;10328708;28;20011;-49
2023/12/08 03:53:55;;;;;;;28.15;17.65;;;;;;;1.94;89.05;97859.31;10326580;28;20049;-50
2023/12/08 03:58:54;;;;;;;26.17;17.00;;;;;;;1.91;88.45;97820.84;10327415;28;20932;-50
2023/12/08 04:03:53;;;;;;;29.08;17.58;;;;;;;2.31;88.77;97860.56;10327123;28;20480;-50
2023/12/08 04:08:52;;;;;;;28.23;17.23;;;;;;;2.38;87.88;97833.47;10327038;28;20124;-49
2023/12/08 04:13:51;;;;;;;28.02;17.02;;;;;;;2.59;87.79;97839.28;10327736;28;20052;-50
2023/12/08 04:18:49;;;;;;;28.98;16.98;;;;;;;2.84;87.26;97852.88;10327348;28;20065;-50
2023/12/08 04:23:48;;;;;;;23.75;15.20;;;;;;;2.88;87.13;97851.25;10326936;28;20124;-49
2023/12/08 04:28:47;;;;;;;24.13;15.05;;;;;;;2.87;86.63;97846.97;10326927;28;20125;-50
2023/12/08 04:33:47;;;;;;;23.13;14.07;;;;;;;3.00;86.64;97855.09;10326938;28;20044;-49
2023/12/08 04:38:46;;;;;;;25.38;15.02;;;;;;;2.93;86.29;97827.53;10326235;28;20061;-49
2023/12/08 04:43:45;;;;;;;25.13;15.07;;;;;;;1.92;85.98;97640.03;10326041;28;20175;-50
2023/12/08 04:48:44;;;;;;;25.23;15.43;;;;;;;3.06;85.84;97818.50;10325941;28;20389;-51
2023/12/08 04:53:43;;;;;;;28.60;17.40;;;;;;;3.05;85.53;97815.88;10326030;28;20029;-50
2023/12/08 04:58:42;;;;;;;28.08;16.85;;;;;;;3.12;85.70;97828.06;10325344;28;20117;-51
2023/12/08 05:03:41;;;;;;;27.48;16.77;;;;;;;3.20;85.29;97834.28;10325946;28;20105;-49
2023/12/08 05:08:40;;;;;;;26.50;16.30;;;;;;;3.09;84.84;97813.44;10324865;28;20044;-49
2023/12/08 05:13:39;;;;;;;31.25;19.65;;;;;;;3.32;84.90;97860.28;10324369;28;20037;-50
2023/12/08 05:18:39;;;;;;;41.53;25.52;;;;;;;2.91;84.60;97808.66;10363095;28;20047;-50
2023/12/08 05:23:38;;;;;;;41.47;25.25;;;;;;;2.89;84.63;97794.06;10365310;28;20139;-50
2023/12/08 05:28:37;;;;;;;40.10;25.55;;;;;;;2.95;84.99;97815.59;10365269;28;20104;-50
2023/12/08 05:33:36;;;;;;;31.08;20.27;;;;;;;3.12;84.20;97858.81;10365347;28;20115;-50
2023/12/08 05:38:35;;;;;;;49.47;41.95;;;;;;;2.85;84.72;97816.16;10364996;28;20040;-50
2023/12/08 05:43:34;;;;;;;;;;;;;;;3.28;84.71;97881.53;10365330;28;20482;-49
2023/12/08 05:48:33;;;;;;;27.50;17.35;;;;;;;2.98;84.09;97820.84;10363811;28;20354;-48
2023/12/08 05:53:32;;;;;;;29.48;19.30;;;;;;;2.74;83.60;97797.03;10364045;28;20067;-49
2023/12/08 05:58:31;;;;;;;30.10;20.25;;;;;;;3.18;84.30;97885.50;10364702;28;20037;-50
2023/12/08 06:03:30;;;;;;;27.92;18.00;;;;;;;3.03;84.34;97864.56;10364724;28;20147;-50
2023/12/08 06:08:30;;;;;;;38.35;20.13;;;;;;;3.16;84.35;97892.28;10362334;28;20112;-49
2023/12/08 06:13:29;;;;;;;33.05;16.52;;;;;;;3.06;84.63;97851.81;10363650;28;20120;-50
2023/12/08 06:18:28;;;;;;;38.45;17.75;;;;;;;3.30;84.31;97900.41;10364612;28;20037;-50
2023/12/08 06:23:27;;;;;;;33.38;19.58;;;;;;;3.07;83.98;97879.19;10363323;28;20419;-49
2023/12/08 06:28:26;;;;;;;30.20;19.67;;;;;;;3.10;84.33;97883.56;10367441;28;20112;-50
2023/12/08 06:33:25;;;;;;;27.90;17.38;;;;;;;3.29;84.00;97890.97;10370961;28;20119;-49
2023/12/08 06:38:23;;;;;;;27.92;17.45;;;;;;;3.19;84.33;97886.38;10371980;28;20033;-49
2023/12/08 06:43:22;;;;;;;51.75;34.08;;;;;;;3.39;83.24;97921.19;10371400;28;20136;-49
2023/12/08 06:48:23;;;;;;;30.20;19.80;;;;;;;2.67;83.98;97836.09;10370887;28;20150;-49
2023/12/08 06:53:22;;;;;;;36.75;25.60;;;;;;;3.32;84.16;97933.81;10373289;28;20077;-50
2023/12/08 06:58:21;;;;;;;30.02;18.60;;;;;;;3.12;84.01;97907.53;10371609;28;20113;-50
2023/12/08 07:03:20;;;;;;;27.95;17.88;;;;;;;3.11;84.25;97895.56;10371905;28;20111;-50
2023/12/08 07:08:19;;;;;;;32.03;19.65;;;;;;;3.09;83.83;97869.84;10372405;28;20041;-50
2023/12/08 07:13:18;;;;;;;36.30;20.73;;;;;;;3.24;83.72;97907.94;10371588;28;20104;-50
2023/12/08 07:18:17;;;;;;;30.65;19.83;;;;;;;2.75;84.62;97883.34;10371061;28;20112;-49
2023/12/08 07:23:16;;;;;;;23.85;15.20;;;;;;;2.34;84.10;97844.44;10371647;28;20057;-49
2023/12/08 07:28:15;;;;;;;23.77;15.65;;;;;;;2.68;84.13;97907.03;10370811;28;20043;-50
2023/12/08 07:33:14;;;;;;;28.52;17.30;;;;;;;3.05;84.83;97933.81;10371309;28;20416;-50
2023/12/08 07:38:13;;;;;;;28.15;17.45;;;;;;;2.71;84.92;97841.34;10371342;28;20052;-49
2023/12/08 07:43:12;;;;;;;29.20;16.83;;;;;;;3.08;84.07;97887.78;10371045;28;20069;-50
2023/12/08 07:48:11;;;;;;;27.38;17.30;;;;;;;3.40;84.41;97922.06;10370777;28;20123;-50
2023/12/08 07:53:10;;;;;;;28.85;17.08;;;;;;;3.56;84.31;97923.38;10370616;28;20045;-49
2023/12/08 07:58:09;;;;;;;26.40;17.80;;;;;;;3.44;83.68;97886.28;10369854;28;20047;-49
2023/12/08 08:03:08;;;;;;;25.95;17.02;;;;;;;3.82;83.51;97903.59;10370672;28;20037;-49
2023/12/08 08:08:07;;;;;;;24.33;15.98;;;;;;;3.54;82.28;97853.19;10369974;28;20798;-49
2023/12/08 08:13:06;;;;;;;26.88;17.05;;;;;;;4.08;82.35;97919.75;10369914;28;20479;-49
2023/12/08 08:18:05;;;;;;;30.38;19.35;;;;;;;4.12;80.96;97918.97;10368248;28;20155;-50
2023/12/08 08:23:04;;;;;;;24.98;15.57;;;;;;;4.13;80.26;97892.47;10368649;28;20068;-49
2023/12/08 08:28:03;;;;;;;19.77;13.35;;;;;;;4.22;78.91;97896.97;10367557;28;20045;-49
2023/12/08 08:33:02;;;;;;;22.63;15.13;;;;;;;4.27;79.20;97896.28;10366795;28;20514;-50
2023/12/08 08:38:01;;;;;;;22.50;14.48;;;;;;;4.12;78.92;97887.28;10367631;28;20032;-50
2023/12/08 08:43:00;;;;;;;21.70;14.77;;;;;;;4.27;79.02;97909.13;10367717;28;20025;-50
2023/12/08 08:47:59;;;;;;;23.75;14.18;;;;;;;4.34;78.69;97909.25;10365854;28;20119;-49
2023/12/08 08:52:59;;;;;;;23.38;15.88;;;;;;;3.98;76.74;97825.31;10362760;28;20090;-50
2023/12/08 08:57:58;;;;;;;23.90;14.85;;;;;;;4.45;76.45;97874.44;10359588;28;20535;-50
2023/12/08 09:02:57;;;;;;;23.60;14.30;;;;;;;4.76;76.19;97900.91;10364331;28;20098;-50
2023/12/08 09:07:56;;;;;;;25.30;15.43;;;;;;;4.57;75.50;97900.47;10366349;28;20075;-50
2023/12/08 09:12:55;;;;;;;19.30;13.45;;;;;;;4.38;74.48;97867.41;10364801;28;20752;-49
2023/12/08 09:17:56;;;;;;;20.98;13.43;;;;;;;3.95;75.14;97854.34;10365287;28;20555;-49
2023/12/08 09:22:54;;;;;;;20.42;14.02;;;;;;;4.02;76.32;97879.34;10365372;28;20135;-50
2023/12/08 09:27:53;;;;;;;33.85;20.95;;;;;;;4.11;77.86;97873.59;10365423;28;20029;-49
2023/12/08 09:32:53;;;;;;;20.40;14.18;;;;;;;3.95;77.27;97851.78;10364697;28;20730;-50
2023/12/08 09:37:51;;;;;;;24.83;18.13;;;;;;;3.75;77.40;97861.50;10364546;28;20057;-50
2023/12/08 09:43:01;;;;;;;24.13;15.30;;;;;;;3.51;77.44;97838.59;10364785;28;20044;-50
2023/12/08 09:48:04;;;;;;;23.42;15.57;;;;;;;3.67;78.02;97845.03;10364517;28;20064;-50
2023/12/08 09:53:04;;;;;;;26.52;17.60;;;;;;;3.27;77.92;97772.09;10364667;28;20071;-50
2023/12/08 09:58:03;;;;;;;22.40;15.27;;;;;;;3.75;77.69;97845.22;10363089;28;20543;-50
2023/12/08 10:03:02;;;;;;;24.75;17.35;;;;;;;3.69;78.18;97842.50;10362810;28;20040;-50
2023/12/08 10:08:02;;;;;;;22.42;14.40;;;;;;;3.71;77.99;97826.31;10363910;28;20294;-50
2023/12/08 10:13:02;;;;;;;22.58;16.30;;;;;;;3.64;77.49;97814.16;10364492;28;20075;-50
2023/12/08 10:18:00;;;;;;;23.63;15.05;;;;;;;2.20;77.33;97531.66;10360137;28;20120;-49
2023/12/08 10:22:59;;;;;;;20.88;13.38;;;;;;;3.99;76.10;97796.25;10363967;28;20132;-49
2023/12/08 10:27:59;;;;;;;24.67;15.88;;;;;;;4.10;76.17;97823.03;10362084;28;20048;-49
2023/12/08 10:32:58;;;;;;;27.88;18.80;;;;;;;3.93;75.87;97721.63;10361408;28;20115;-49
2023/12/08 10:37:57;;;;;;;24.75;17.50;;;;;;;4.48;75.57;97798.31;10361156;28;20048;-49
2023/12/08 10:42:56;;;;;;;24.20;16.60;;;;;;;4.40;74.45;97768.13;10363753;28;20523;-49
2023/12/08 10:47:55;;;;;;;20.17;14.02;;;;;;;4.33;74.35;97774.81;10361961;28;20048;-49
2023/12/08 10:52:56;;;;;;;21.30;15.55;;;;;;;4.41;72.84;97739.91;10364517;28;20119;-49
2023/12/08 10:57:58;;;;;;;27.35;19.60;;;;;;;3.42;71.78;97585.28;10362903;28;20424;-49
2023/12/08 11:03:01;;;;;;;19.70;15.52;;;;;;;4.67;70.75;97799.59;10363670;28;20132;-49
2023/12/08 11:08:04;;;;;;;24.08;16.67;;;;;;;4.54;70.42;97761.59;10362633;28;20136;-50
2023/12/08 11:13:18;;;;;;;28.52;18.10;;;;;;;4.76;69.54;97792.91;10363727;28;20139;-49
2023/12/08 11:18:23;;;;;;;24.63;17.00;;;;;;;4.48;69.42;97738.34;10366699;28;20104;-49
2023/12/08 11:23:23;;;;;;;23.17;16.25;;;;;;;4.76;68.94;97780.97;10367291;28;20465;-52
2023/12/08 11:28:30;;;;;;;18.33;13.75;;;;;;;4.64;68.39;97755.84;10370500;28;20490;-49
2023/12/08 11:33:47;;;;;;;19.20;14.40;;;;;;;3.53;67.92;97592.34;10368288;28;20563;-51
2023/12/08 11:38:46;;;;;;;24.42;15.40;;;;;;;3.57;68.35;97574.50;10368385;28;20060;-49
2023/12/08 11:43:45;;;;;;;17.48;13.63;;;;;;;4.12;67.33;97659.59;10370302;28;20029;-50
2023/12/08 11:48:47;;;;;;;17.50;11.93;;;;;;;4.64;67.10;97758.44;10370042;28;21480;-50
2023/12/08 11:53:56;;;;;;;26.75;18.83;;;;;;;4.33;68.21;97743.13;10370761;28;20129;-50
2023/12/08 11:58:59;;;;;;;23.77;15.57;;;;;;;4.29;68.04;97757.59;10367380;28;20087;-52
2023/12/08 12:03:59;;;;;;;22.85;16.15;;;;;;;4.06;68.89;97726.25;10370227;28;20060;-50
2023/12/08 12:08:59;;;;;;;27.05;19.45;;;;;;;4.19;68.66;97738.53;10369342;28;20727;-50
2023/12/08 12:13:59;;;;;;;22.67;14.65;;;;;;;4.38;66.82;97764.66;10370978;28;20056;-50
2023/12/08 12:18:58;;;;;;;25.05;16.58;;;;;;;3.73;66.59;97691.22;10368006;28;20056;-50
2023/12/08 12:23:58;;;;;;;29.67;19.92;;;;;;;4.09;67.51;97782.81;10366117;28;20155;-50
2023/12/08 12:28:57;;;;;;;;;;;;;;;3.91;68.35;97777.19;10367035;28;20112;-50
2023/12/08 12:33:56;;;;;;;24.17;16.75;;;;;;;3.65;69.24;97746.59;10367402;28;19999;-50
2023/12/08 12:38:54;;;;;;;22.23;15.30;;;;;;;3.63;69.31;97761.06;10365692;28;20021;-50
2023/12/08 12:44:02;;;;;;;22.08;14.20;;;;;;;3.18;69.64;97692.34;10365828;28;20025;-50
2023/12/08 12:49:02;;;;;;;30.95;19.33;;;;;;;2.54;70.07;97571.88;10366177;28;21203;-50
2023/12/08 12:54:03;;;;;;;21.75;14.75;;;;;;;3.69;70.84;97765.53;10363822;28;20112;-50
2023/12/08 12:59:09;;;;;;;22.98;15.60;;;;;;;3.66;71.40;97771.44;10365171;28;20063;-50
2023/12/08 13:04:08;;;;;;;34.42;19.05;;;;;;;3.61;71.57;97758.50;10358664;28;20111;-50
2023/12/08 13:09:09;;;;;;;30.08;20.45;;;;;;;3.31;71.62;97696.09;10364610;28;20036;-49
2023/12/08 13:14:08;;;;;;;25.48;18.02;;;;;;;3.33;70.95;97692.75;10363801;28;20124;-49
2023/12/08 13:19:07;;;;;;;24.75;16.83;;;;;;;3.74;70.82;97759.66;10364789;28;20107;-50
2023/12/08 13:24:06;;;;;;;34.05;23.02;;;;;;;3.78;71.48;97755.50;10362548;28;20039;-50
2023/12/08 13:29:05;;;;;;;32.40;20.60;;;;;;;3.90;71.18;97775.47;10364727;28;20036;-50
2023/12/08 13:34:04;;;;;;;39.88;25.95;;;;;;;3.95;71.32;97789.28;10367008;28;20499;-50
2023/12/08 13:39:04;;;;;;;35.63;21.90;;;;;;;3.95;71.66;97784.16;10366562;28;20032;-50
2023/12/08 13:44:04;;;;;;;33.30;21.98;;;;;;;4.02;71.55;97794.63;10365686;28;20064;-49
2023/12/08 13:49:03;;;;;;;39.50;26.15;;;;;;;3.97;71.98;97787.63;10364544;28;20060;-50
2023/12/08 13:54:03;;;;;;;29.13;19.63;;;;;;;4.06;71.66;97783.59;10363556;28;20769;-49
2023/12/08 13:59:02;;;;;;;27.15;18.55;;;;;;;3.69;70.84;97714.19;10366008;28;20064;-49
2023/12/08 14:04:01;;;;;;;31.38;19.88;;;;;;;3.83;71.56;97767.59;10366153;28;20024;-50
2023/12/08 14:09:00;;;;;;;32.80;21.75;;;;;;;3.45;72.13;97699.91;10365518;28;20033;-50
2023/12/08 14:13:59;;;;;;;28.70;18.98;;;;;;;3.70;71.97;97755.28;10366110;28;20036;-50
2023/12/08 14:18:58;;;;;;;33.45;22.42;;;;;;;3.90;72.80;97780.59;10365735;28;20045;-50
2023/12/08 14:23:57;;;;;;;28.13;18.92;;;;;;;3.99;71.10;97775.72;10365945;28;20048;-52
2023/12/08 14:28:56;;;;;;;26.92;18.30;;;;;;;3.51;70.84;97714.59;10365261;28;20519;-51
2023/12/08 14:33:54;;;;;;;36.55;24.73;;;;;;;3.90;71.35;97770.34;10365875;28;20112;-50
2023/12/08 14:38:53;;;;;;;39.28;25.00;;;;;;;3.78;71.38;97770.91;10365582;28;20104;-50
2023/12/08 14:43:52;;;;;;;28.38;19.25;;;;;;;3.89;72.00;97799.38;10365631;28;20041;-49
2023/12/08 14:48:51;;;;;;;31.75;20.52;;;;;;;3.55;72.37;97758.31;10369017;28;20047;-50
2023/12/08 14:53:51;;;;;;;35.85;23.27;;;;;;;3.52;72.56;97749.66;10373224;28;20028;-49
2023/12/08 14:58:50;;;;;;;36.42;23.23;;;;;;;3.40;73.33;97732.25;10371446;28;20056;-50
2023/12/08 15:03:49;;;;;;;38.13;26.45;;;;;;;3.51;73.79;97759.06;10373270;28;20103;-50
2023/12/08 15:08:48;;;;;;;36.58;24.60;;;;;;;2.66;73.82;97596.09;10372276;28;20144;-50
2023/12/08 15:13:47;;;;;;;40.00;25.90;;;;;;;3.82;74.36;97788.97;10371150;28;20029;-50
2023/12/08 15:18:46;;;;;;;49.88;33.60;;;;;;;3.59;74.38;97743.88;10372148;28;20108;-50
2023/12/08 15:23:46;;;;;;;48.80;33.47;;;;;;;3.72;74.33;97784.41;10372141;28;20090;-50
2023/12/08 15:28:45;;;;;;;48.08;30.02;;;;;;;3.61;74.91;97789.28;10371503;28;20065;-52
2023/12/08 15:33:44;;;;;;;55.47;35.45;;;;;;;2.59;74.86;97618.97;10371257;28;20068;-49
2023/12/08 15:38:43;;;;;;;71.40;43.58;;;;;;;3.25;75.63;97739.53;10370170;28;20028;-49
2023/12/08 15:43:42;;;;;;;56.95;36.67;;;;;;;3.47;75.55;97789.72;10370034;28;20020;-50
2023/12/08 15:48:41;;;;;;;52.38;34.88;;;;;;;3.53;76.06;97797.59;10369897;28;20150;-50
2023/12/08 15:53:44;;;;;;;44.83;28.48;;;;;;;3.66;76.13;97830.47;10371421;28;20029;-50
2023/12/08 15:58:43;;;;;;;51.25;34.58;;;;;;;3.69;76.07;97839.94;10370268;28;20079;-50
2023/12/08 16:03:41;;;;;;;38.78;25.55;;;;;;;3.51;76.45;97841.16;10370288;28;20051;-51
2023/12/08 16:08:42;;;;;;;39.08;25.73;;;;;;;3.36;77.08;97841.59;10370492;28;20334;-50
2023/12/08 16:13:41;;;;;;;45.63;28.75;;;;;;;3.10;76.58;97786.13;10369957;28;20067;-50
2023/12/08 16:18:40;;;;;;;56.20;37.03;;;;;;;3.12;77.36;97793.03;10369920;28;20067;-50
2023/12/08 16:23:39;;;;;;;52.17;32.60;;;;;;;3.31;77.31;97816.63;10369461;28;20112;-50
2023/12/08 16:28:38;;;;;;;56.33;34.70;;;;;;;3.19;77.29;97825.72;10368882;28;20120;-50
2023/12/08 16:33:37;;;;;;;62.72;38.10;;;;;;;3.36;77.14;97859.56;10370108;28;20025;-50
2023/12/08 16:38:37;;;;;;;;;;;;;;;3.38;77.41;97852.78;10369721;28;20048;-50
2023/12/08 16:43:36;;;;;;;63.83;42.30;;;;;;;3.17;77.58;97819.69;10368710;28;20391;-50
2023/12/08 16:48:35;;;;;;;67.45;43.50;;;;;;;3.33;77.65;97858.59;10368360;28;20408;-49
2023/12/08 16:53:34;;;;;;;58.85;39.40;;;;;;;3.36;77.41;97864.69;10368753;28;20040;-50
2023/12/08 16:58:33;;;;;;;60.33;40.22;;;;;;;3.12;77.62;97805.88;10366894;28;20113;-49
2023/12/08 17:03:32;;;;;;;62.72;44.38;;;;;;;3.28;77.40;97835.38;10367483;28;20103;-49
2023/12/08 17:08:31;;;;;;;68.03;46.13;;;;;;;3.48;77.18;97858.19;10368659;28;20043;-52
2023/12/08 17:13:30;;;;;;;72.90;49.38;;;;;;;3.09;77.31;97795.50;10366813;28;20742;-50
2023/12/08 17:18:29;;;;;;;67.13;45.90;;;;;;;3.28;78.01;97839.63;10366601;28;20491;-50
2023/12/08 17:23:28;;;;;;;51.25;34.70;;;;;;;3.25;78.09;97837.84;10367788;28;20076;-49
2023/12/08 17:28:27;;;;;;;45.97;29.60;;;;;;;3.15;78.55;97853.81;10366848;28;20268;-49
2023/12/08 17:33:26;;;;;;;63.55;39.65;;;;;;;2.86;78.19;97810.19;10366338;28;20116;-50
2023/12/08 17:38:25;;;;;;;50.03;33.40;;;;;;;2.93;78.41;97832.66;10367418;28;20040;-49
2023/12/08 17:43:29;;;;;;;63.30;40.63;;;;;;;3.17;78.10;97864.97;10365841;28;20104;-50
2023/12/08 17:48:29;;;;;;;60.35;37.35;;;;;;;2.08;77.75;97685.75;10365352;28;20057;-50
2023/12/08 17:53:28;;;;;;;57.50;35.08;;;;;;;3.09;78.52;97880.09;10364685;28;20115;-49
2023/12/08 17:58:27;;;;;;;71.70;43.50;;;;;;;2.82;78.57;97831.44;10363869;28;20068;-50
2023/12/08 18:03:28;;;;;;;59.25;36.75;;;;;;;3.28;78.05;97886.66;10362953;28;20037;-49
2023/12/08 18:08:27;;;;;;;58.00;34.47;;;;;;;3.12;78.20;97887.91;10366590;28;20504;-50
2023/12/08 18:13:26;;;;;;;65.45;35.55;;;;;;;2.79;79.42;97844.16;10365018;28;20029;-49
2023/12/08 18:18:25;;;;;;;56.00;32.65;;;;;;;2.75;79.04;97844.91;10365943;28;20099;-51
2023/12/08 18:23:24;;;;;;;40.20;25.25;;;;;;;3.11;78.84;97877.59;10369409;28;20049;-49
2023/12/08 18:28:23;;;;;;;38.63;24.25;;;;;;;2.81;79.08;97809.19;10373718;28;20037;-50
2023/12/08 18:33:21;;;;;;;66.32;38.95;;;;;;;3.37;79.14;97874.09;10373596;28;20456;-50
2023/12/08 18:38:20;;;;;;;64.75;40.78;;;;;;;3.37;78.84;97860.41;10373954;28;20469;-50
2023/12/08 18:43:19;;;;;;;42.75;27.77;;;;;;;3.57;78.87;97891.78;10373238;28;20427;-50
2023/12/08 18:48:18;;;;;;;42.33;26.40;;;;;;;3.59;78.86;97892.72;10371394;28;20112;-50
2023/12/08 18:53:17;;;;;;;38.08;22.92;;;;;;;3.47;78.32;97887.19;10373142;28;20060;-50
2023/12/08 18:58:16;;;;;;;31.00;19.23;;;;;;;2.69;77.78;97796.88;10372899;28;20115;-49
2023/12/08 19:03:15;;;;;;;29.88;19.55;;;;;;;3.10;78.01;97878.44;10372682;28;20108;-50
2023/12/08 19:08:15;;;;;;;31.08;20.05;;;;;;;2.72;78.20;97849.91;10372290;28;20036;-50
2023/12/08 19:13:15;;;;;;;35.83;23.33;;;;;;;2.87;78.25;97867.47;10372362;28;20164;-50
2023/12/08 19:18:14;;;;;;;38.17;25.15;;;;;;;2.62;79.19;97832.53;10372132;28;20067;-51
2023/12/08 19:23:14;;;;;;;36.15;23.23;;;;;;;2.98;79.83;97882.38;10371667;28;20048;-51
2023/12/08 19:28:13;;;;;;;40.42;24.73;;;;;;;3.09;79.76;97872.41;10371705;28;20071;-49
2023/12/08 19:33:12;;;;;;;37.08;22.52;;;;;;;2.79;79.99;97862.09;10370504;28;20116;-49
2023/12/08 19:38:11;;;;;;;37.33;24.08;;;;;;;3.09;80.08;97879.25;10371666;28;20033;-50
2023/12/08 19:43:10;;;;;;;39.47;24.92;;;;;;;2.79;80.03;97829.66;10371297;28;20037;-49
2023/12/08 19:48:09;;;;;;;35.60;23.67;;;;;;;3.29;80.03;97880.72;10370562;28;20025;-51
2023/12/08 19:53:08;;;;;;;;;;;;;;;3.41;79.91;97893.03;10372042;28;20111;-50
2023/12/08 19:58:08;;;;;;;43.63;26.33;;;;;;;3.27;79.14;97833.63;10370523;28;19951;-49
2023/12/08 20:03:07;;;;;;;40.30;26.95;;;;;;;3.48;79.20;97873.56;10370648;28;20058;-49
2023/12/08 20:08:06;;;;;;;41.17;26.15;;;;;;;3.62;79.50;97885.09;10370169;28;20057;-49
2023/12/08 20:13:05;;;;;;;42.70;23.67;;;;;;;3.61;79.66;97880.75;10369660;28;20111;-49
2023/12/08 20:18:04;;;;;;;42.17;25.38;;;;;;;3.07;79.33;97778.34;10369267;28;20108;-51
2023/12/08 20:23:03;;;;;;;;;;;;;;;3.62;79.50;97887.66;10369192;28;20115;-50
2023/12/08 20:28:02;;;;;;;41.80;22.77;;;;;;;3.47;80.19;97866.69;10369159;28;20017;-49
2023/12/08 20:33:01;;;;;;;33.80;20.67;;;;;;;3.65;80.31;97892.88;10368781;28;20056;-49
2023/12/08 20:38:01;;;;;;;40.40;22.55;;;;;;;3.60;80.40;97900.44;10367572;28;20068;-49
2023/12/08 20:43:00;;;;;;;37.05;22.48;;;;;;;3.58;80.37;97881.56;10369331;28;20575;-50
2023/12/08 20:47:59;;;;;;;40.63;24.52;;;;;;;3.46;80.35;97844.44;10365978;28;20130;-49
2023/12/08 20:52:58;;;;;;;35.72;22.80;;;;;;;3.70;80.21;97886.16;10367948;28;20120;-48
2023/12/08 20:57:57;;;;;;;41.28;25.38;;;;;;;3.70;79.69;97862.19;10368149;28;20094;-49
2023/12/08 21:02:56;;;;;;;35.15;20.80;;;;;;;3.13;80.17;97819.56;10367831;28;20051;-49
2023/12/08 21:07:55;;;;;;;35.92;21.80;;;;;;;3.29;80.93;97857.63;10367736;28;20068;-50
2023/12/08 21:12:54;;;;;;;38.38;23.80;;;;;;;3.14;80.43;97831.53;10368341;28;20150;-49
2023/12/08 21:17:53;;;;;;;35.05;21.95;;;;;;;3.38;80.29;97870.72;10370854;28;20021;-49
2023/12/08 21:22:52;;;;;;;36.50;22.02;;;;;;;3.07;80.00;97821.91;10367385;28;20065;-50
2023/12/08 21:27:51;;;;;;;39.00;24.25;;;;;;;3.27;80.43;97838.75;10367220;28;20037;-50
2023/12/08 21:32:50;;;;;;;63.67;39.95;;;;;;;3.60;80.25;97877.34;10366600;28;20458;-49
2023/12/08 21:37:49;;;;;;;46.58;30.25;;;;;;;3.77;80.28;97906.03;10366378;28;20439;-49
2023/12/08 21:42:51;;;;;;;46.15;29.80;;;;;;;3.35;80.54;97847.53;10367212;28;20037;-49
2023/12/08 21:47:50;;;;;;;42.42;26.90;;;;;;;3.84;80.29;97909.66;10365974;28;20131;-49
2023/12/08 21:52:49;;;;;;;57.00;35.63;;;;;;;3.59;79.81;97887.56;10364906;28;20384;-49
2023/12/08 21:57:48;;;;;;;38.95;24.58;;;;;;;3.55;80.27;97922.53;10365913;28;20120;-49
2023/12/08 22:02:47;;;;;;;;;;;;;;;3.56;81.06;97910.56;10366839;28;20079;-49
2023/12/08 22:07:46;;;;;;;37.38;20.42;;;;;;;3.55;80.97;97902.00;10365984;28;20306;-49
2023/12/08 22:12:45;;;;;;;34.90;21.77;;;;;;;3.61;80.78;97901.28;10367280;28;20036;-49
2023/12/08 22:17:44;;;;;;;38.05;22.83;;;;;;;3.34;80.43;97840.69;10365725;28;20440;-49
2023/12/08 22:22:43;;;;;;;33.92;21.70;;;;;;;3.69;80.28;97904.97;10364900;28;20045;-49
2023/12/08 22:27:42;;;;;;;33.50;19.98;;;;;;;3.57;80.10;97863.56;10365327;28;20618;-49
2023/12/08 22:32:41;;;;;;;41.20;24.23;;;;;;;3.25;79.91;97830.16;10365127;28;20460;-50
2023/12/08 22:37:40;;;;;;;;;;;;;;;3.59;80.33;97885.88;10366208;28;20073;-49
2023/12/08 22:42:39;;;;;;;39.38;22.92;;;;;;;3.20;80.14;97836.84;10365439;28;19913;-49
2023/12/08 22:47:38;;;;;;;38.05;21.23;;;;;;;3.27;80.82;97866.97;10365119;28;20029;-49
2023/12/08 22:52:37;;;;;;;33.60;21.15;;;;;;;3.10;80.53;97857.94;10364443;28;20068;-49
2023/12/08 22:57:36;;;;;;;33.70;21.60;;;;;;;2.80;81.11;97812.59;10361851;28;20028;-50
2023/12/08 23:02:34;;;;;;;32.13;19.63;;;;;;;3.14;81.47;97846.91;10365038;28;20112;-49